createdAt,value
2018-05-15T00:01:02.631Z,17.89
2018-05-15T00:02:11.497Z,17.89
2018-05-15T00:03:20.634Z,17.95
2018-05-15T00:04:29.494Z,17.92
2018-05-15T00:05:38.355Z,17.84
2018-05-15T00:06:47.220Z,17.89
2018-05-15T00:07:56.084Z,17.79
2018-05-15T00:09:04.946Z,17.71
2018-05-15T00:10:13.815Z,17.77
2018-05-15T00:11:23.160Z,17.64
2018-05-15T00:12:32.021Z,17.64
2018-05-15T00:13:40.887Z,17.79
2018-05-15T00:14:49.750Z,17.74
2018-05-15T00:15:58.611Z,17.71
2018-05-15T00:17:07.471Z,17.79
2018-05-15T00:18:16.335Z,17.66
2018-05-15T00:19:25.205Z,17.63
2018-05-15T00:20:34.063Z,17.79
2018-05-15T00:21:42.922Z,17.77
2018-05-15T00:22:51.786Z,17.64
2018-05-15T00:24:00.645Z,17.64
2018-05-15T00:25:09.506Z,17.52
2018-05-15T00:26:18.924Z,17.55
2018-05-15T00:27:27.787Z,17.58
2018-05-15T00:28:36.998Z,17.55
2018-05-15T00:29:45.864Z,17.52
2018-05-15T00:30:55.006Z,17.48
2018-05-15T00:32:04.147Z,17.41
2018-05-15T00:33:13.007Z,17.48
2018-05-15T00:34:22.496Z,17.41
2018-05-15T00:35:31.368Z,17.33
2018-05-15T00:36:40.236Z,17.33
2018-05-15T00:37:49.659Z,17.31
2018-05-15T00:38:58.802Z,17.23
2018-05-15T00:40:07.672Z,17.16
2018-05-15T00:41:16.536Z,17.16
2018-05-15T00:42:25.674Z,17.08
2018-05-15T00:43:34.533Z,17.14
2018-05-15T00:44:43.395Z,17.03
2018-05-15T00:45:53.245Z,17.11
2018-05-15T00:47:02.105Z,17.07
2018-05-15T00:48:10.967Z,16.97
2018-05-15T00:49:19.825Z,16.96
2018-05-15T00:50:28.686Z,16.93
2018-05-15T00:51:37.547Z,16.89
2018-05-15T00:52:46.962Z,16.85
2018-05-15T00:53:55.826Z,16.91
2018-05-15T00:55:04.959Z,16.83
2018-05-15T00:56:14.101Z,16.82
2018-05-15T00:57:23.311Z,16.89
2018-05-15T00:58:32.173Z,16.76
2018-05-15T00:59:41.313Z,16.79
2018-05-15T01:00:50.451Z,16.76
2018-05-15T01:01:59.592Z,16.78
2018-05-15T01:03:08.812Z,16.79
2018-05-15T01:04:17.676Z,16.76
2018-05-15T01:05:26.814Z,16.67
2018-05-15T01:06:35.676Z,16.71
2018-05-15T01:07:44.535Z,16.7
2018-05-15T01:08:53.500Z,16.66
2018-05-15T01:10:02.312Z,16.68
2018-05-15T01:11:11.174Z,16.76
2018-05-15T01:12:20.037Z,16.64
2018-05-15T01:13:28.898Z,16.61
2018-05-15T01:14:37.760Z,16.57
2018-05-15T01:15:46.622Z,16.64
2018-05-15T01:16:55.483Z,16.52
2018-05-15T01:18:04.346Z,16.56
2018-05-15T01:19:13.209Z,16.48
2018-05-15T01:20:22.171Z,16.56
2018-05-15T01:21:31.031Z,16.49
2018-05-15T01:22:40.178Z,16.5
2018-05-15T01:23:49.316Z,16.53
2018-05-15T01:24:58.177Z,16.46
2018-05-15T01:26:07.038Z,16.52
2018-05-15T01:27:15.901Z,16.42
2018-05-15T01:28:24.764Z,16.41
2018-05-15T01:29:33.626Z,16.39
2018-05-15T01:30:42.488Z,16.39
2018-05-15T01:31:51.601Z,16.33
2018-05-15T01:33:00.462Z,16.27
2018-05-15T01:34:09.323Z,16.34
2018-05-15T01:35:18.185Z,16.33
2018-05-15T01:36:27.046Z,16.21
2018-05-15T01:37:35.906Z,16.17
2018-05-15T01:38:44.764Z,16.08
2018-05-15T01:39:53.726Z,16.07
2018-05-15T01:41:02.513Z,16.12
2018-05-15T01:42:11.377Z,16.12
2018-05-15T01:43:20.237Z,16.01
2018-05-15T01:44:29.376Z,16.09
2018-05-15T01:45:38.526Z,16.05
2018-05-15T01:46:47.388Z,16.04
2018-05-15T01:47:56.247Z,15.97
2018-05-15T01:49:05.361Z,16.01
2018-05-15T01:50:14.526Z,16.05
2018-05-15T01:51:23.387Z,15.9
2018-05-15T01:52:32.255Z,16.04
2018-05-15T01:53:41.117Z,16.01
2018-05-15T01:54:49.980Z,15.9
2018-05-15T01:55:58.837Z,16
2018-05-15T01:57:07.699Z,15.96
2018-05-15T01:58:16.558Z,15.89
2018-05-15T01:59:25.490Z,15.93
2018-05-15T02:00:34.785Z,15.87
2018-05-15T02:01:43.647Z,15.89
2018-05-15T02:02:52.507Z,15.86
2018-05-15T02:04:01.648Z,15.8
2018-05-15T02:05:11.070Z,15.86
2018-05-15T02:06:20.084Z,15.86
2018-05-15T02:07:28.945Z,15.76
2018-05-15T02:08:38.080Z,15.83
2018-05-15T02:09:46.942Z,15.74
2018-05-15T02:10:55.803Z,15.78
2018-05-15T02:12:04.778Z,15.68
2018-05-15T02:13:13.694Z,15.64
2018-05-15T02:14:22.500Z,15.67
2018-05-15T02:15:31.639Z,15.65
2018-05-15T02:16:40.498Z,15.69
2018-05-15T02:17:49.687Z,15.71
2018-05-15T02:18:58.552Z,15.64
2018-05-15T02:20:07.416Z,15.65
2018-05-15T02:21:16.555Z,15.71
2018-05-15T02:22:25.417Z,15.65
2018-05-15T02:23:34.428Z,15.6
2018-05-15T02:24:43.569Z,15.62
2018-05-15T02:25:52.430Z,15.56
2018-05-15T02:27:01.292Z,15.53
2018-05-15T02:28:10.434Z,15.64
2018-05-15T02:29:19.448Z,15.53
2018-05-15T02:30:28.853Z,15.6
2018-05-15T02:31:38.225Z,15.51
2018-05-15T02:32:47.370Z,15.5
2018-05-15T02:33:57.059Z,15.51
2018-05-15T02:35:06.653Z,15.43
2018-05-15T02:36:15.512Z,15.44
2018-05-15T02:37:24.377Z,15.38
2018-05-15T02:38:33.805Z,15.39
2018-05-15T02:39:43.232Z,15.41
2018-05-15T02:40:52.826Z,15.41
2018-05-15T02:42:01.692Z,15.36
2018-05-15T02:43:10.950Z,15.35
2018-05-15T02:44:20.108Z,15.25
2018-05-15T02:45:29.258Z,15.29
2018-05-15T02:46:38.782Z,15.25
2018-05-15T02:47:48.200Z,15.25
2018-05-15T02:48:57.066Z,15.27
2018-05-15T02:50:06.495Z,15.13
2018-05-15T02:51:15.355Z,15.25
2018-05-15T02:52:24.324Z,15.11
2018-05-15T02:53:33.748Z,15.16
2018-05-15T02:54:42.609Z,15.16
2018-05-15T02:55:51.748Z,15.17
2018-05-15T02:57:00.607Z,15.21
2018-05-15T02:58:09.822Z,15.16
2018-05-15T02:59:18.971Z,15.1
2018-05-15T03:00:27.830Z,14.99
2018-05-15T03:01:36.980Z,14.99
2018-05-15T03:02:46.131Z,15.02
2018-05-15T03:03:55.622Z,15.02
2018-05-15T03:05:04.487Z,14.95
2018-05-15T03:06:13.639Z,15.01
2018-05-15T03:07:22.787Z,14.95
2018-05-15T03:08:31.653Z,14.91
2018-05-15T03:09:40.893Z,14.89
2018-05-15T03:10:49.756Z,14.84
2018-05-15T03:11:58.896Z,14.83
2018-05-15T03:13:08.317Z,14.83
2018-05-15T03:14:17.177Z,14.73
2018-05-15T03:15:26.193Z,14.8
2018-05-15T03:16:35.334Z,14.81
2018-05-15T03:17:44.469Z,14.83
2018-05-15T03:18:53.331Z,14.73
2018-05-15T03:20:02.748Z,14.72
2018-05-15T03:21:11.662Z,14.65
2018-05-15T03:22:20.522Z,14.75
2018-05-15T03:23:29.382Z,14.77
2018-05-15T03:24:38.527Z,14.75
2018-05-15T03:25:47.388Z,14.65
2018-05-15T03:26:56.304Z,14.61
2018-05-15T03:28:05.158Z,14.65
2018-05-15T03:29:14.018Z,14.75
2018-05-15T03:30:22.880Z,14.52
2018-05-15T03:31:32.035Z,14.62
2018-05-15T03:32:41.247Z,14.61
2018-05-15T03:33:50.393Z,14.61
2018-05-15T03:34:59.531Z,14.52
2018-05-15T03:36:08.390Z,14.46
2018-05-15T03:37:17.250Z,14.58
2018-05-15T03:38:26.403Z,14.55
2018-05-15T03:39:35.265Z,14.47
2018-05-15T03:40:44.128Z,14.55
2018-05-15T03:41:52.987Z,14.5
2018-05-15T03:43:01.850Z,14.58
2018-05-15T03:44:10.860Z,14.58
2018-05-15T03:45:19.721Z,14.61
2018-05-15T03:46:28.579Z,14.51
2018-05-15T03:47:37.440Z,14.54
2018-05-15T03:48:46.678Z,14.45
2018-05-15T03:49:55.820Z,14.57
2018-05-15T03:51:04.681Z,14.47
2018-05-15T03:52:13.818Z,14.51
2018-05-15T03:53:22.957Z,14.45
2018-05-15T03:54:31.821Z,14.39
2018-05-15T03:55:40.683Z,14.35
2018-05-15T03:56:50.095Z,14.33
2018-05-15T03:57:58.966Z,14.35
2018-05-15T03:59:07.813Z,14.36
2018-05-15T04:00:16.676Z,14.37
2018-05-15T04:01:25.885Z,14.28
2018-05-15T04:02:35.033Z,14.36
2018-05-15T04:03:44.171Z,14.35
2018-05-15T04:04:53.316Z,14.36
2018-05-15T04:06:02.176Z,14.36
2018-05-15T04:07:11.037Z,14.28
2018-05-15T04:08:20.171Z,14.32
2018-05-15T04:09:29.031Z,14.32
2018-05-15T04:10:37.892Z,14.25
2018-05-15T04:11:46.754Z,14.32
2018-05-15T04:12:55.985Z,14.29
2018-05-15T04:14:04.846Z,14.35
2018-05-15T04:15:13.711Z,14.39
2018-05-15T04:16:22.576Z,14.35
2018-05-15T04:17:31.716Z,14.27
2018-05-15T04:18:40.726Z,14.27
2018-05-15T04:19:49.587Z,14.29
2018-05-15T04:20:58.452Z,14.28
2018-05-15T04:22:07.589Z,14.39
2018-05-15T04:23:16.447Z,14.32
2018-05-15T04:24:25.311Z,14.33
2018-05-15T04:25:34.170Z,14.27
2018-05-15T04:26:43.308Z,14.32
2018-05-15T04:27:52.449Z,14.36
2018-05-15T04:29:01.311Z,14.28
2018-05-15T04:30:10.168Z,14.32
2018-05-15T04:31:19.030Z,14.33
2018-05-15T04:32:28.182Z,14.33
2018-05-15T04:33:37.043Z,14.28
2018-05-15T04:34:46.179Z,14.35
2018-05-15T04:35:55.318Z,14.4
2018-05-15T04:37:04.180Z,14.46
2018-05-15T04:38:13.322Z,14.42
2018-05-15T04:39:22.183Z,14.32
2018-05-15T04:40:31.688Z,14.42
2018-05-15T04:41:40.509Z,14.35
2018-05-15T04:42:49.643Z,14.5
2018-05-15T04:43:59.287Z,14.46
2018-05-15T04:45:08.505Z,14.43
2018-05-15T04:46:17.639Z,14.46
2018-05-15T04:47:26.849Z,14.47
2018-05-15T04:48:35.706Z,14.52
2018-05-15T04:49:44.569Z,14.47
2018-05-15T04:50:53.431Z,14.57
2018-05-15T04:52:05.388Z,14.57
2018-05-15T04:53:17.176Z,14.62
2018-05-15T04:54:26.310Z,14.61
2018-05-15T04:55:35.522Z,14.57
2018-05-15T04:56:45.070Z,14.64
2018-05-15T04:57:53.932Z,14.52
2018-05-15T04:59:03.143Z,14.64
2018-05-15T05:00:12.002Z,14.65
2018-05-15T05:01:21.146Z,14.62
2018-05-15T05:02:30.559Z,14.62
2018-05-15T05:03:39.972Z,14.81
2018-05-15T05:04:49.279Z,14.64
2018-05-15T05:05:58.141Z,14.75
2018-05-15T05:07:07.003Z,14.69
2018-05-15T05:08:15.863Z,14.69
2018-05-15T05:09:24.722Z,14.72
2018-05-15T05:10:33.833Z,14.69
2018-05-15T05:11:42.772Z,14.78
2018-05-15T05:12:51.554Z,14.78
2018-05-15T05:14:00.696Z,14.83
2018-05-15T05:15:09.559Z,14.8
2018-05-15T05:16:18.424Z,14.95
2018-05-15T05:17:27.564Z,14.81
2018-05-15T05:18:36.428Z,14.83
2018-05-15T05:19:45.562Z,14.81
2018-05-15T05:20:54.702Z,14.8
2018-05-15T05:22:03.661Z,14.8
2018-05-15T05:23:12.522Z,14.84
2018-05-15T05:24:21.939Z,14.91
2018-05-15T05:25:30.799Z,14.94
2018-05-15T05:26:39.660Z,15.02
2018-05-15T05:27:48.881Z,14.96
2018-05-15T05:28:58.027Z,14.96
2018-05-15T05:30:07.177Z,15.03
2018-05-15T05:31:16.037Z,15.01
2018-05-15T05:32:24.900Z,15.11
2018-05-15T05:33:34.139Z,15.07
2018-05-15T05:34:42.999Z,15.06
2018-05-15T05:35:51.965Z,15.1
2018-05-15T05:37:00.773Z,15.14
2018-05-15T05:38:09.915Z,15.11
2018-05-15T05:39:18.925Z,15.11
2018-05-15T05:40:28.063Z,15.1
2018-05-15T05:41:37.214Z,15.09
2018-05-15T05:42:46.076Z,15.23
2018-05-15T05:43:55.220Z,15.25
2018-05-15T05:45:04.435Z,15.29
2018-05-15T05:46:13.581Z,15.27
2018-05-15T05:47:22.439Z,15.28
2018-05-15T05:48:31.404Z,15.29
2018-05-15T05:49:40.264Z,15.34
2018-05-15T05:50:49.173Z,15.27
2018-05-15T05:51:58.629Z,15.28
2018-05-15T05:53:07.459Z,15.29
2018-05-15T05:54:16.324Z,15.28
2018-05-15T05:55:25.186Z,15.31
2018-05-15T05:56:34.072Z,15.34
2018-05-15T05:57:42.933Z,15.38
2018-05-15T05:58:52.074Z,15.29
2018-05-15T06:00:01.598Z,15.44
2018-05-15T06:01:10.461Z,15.35
2018-05-15T06:02:19.448Z,15.36
2018-05-15T06:03:28.312Z,15.54
2018-05-15T06:04:37.774Z,15.56
2018-05-15T06:05:46.637Z,15.47
2018-05-15T06:06:55.778Z,15.51
2018-05-15T06:08:04.796Z,15.53
2018-05-15T06:09:13.942Z,15.57
2018-05-15T06:10:23.088Z,15.6
2018-05-15T06:11:31.944Z,15.59
2018-05-15T06:12:40.806Z,15.54
2018-05-15T06:13:49.947Z,15.6
2018-05-15T06:14:58.807Z,15.69
2018-05-15T06:16:07.671Z,15.68
2018-05-15T06:17:16.811Z,15.65
2018-05-15T06:18:25.672Z,15.68
2018-05-15T06:19:34.886Z,15.74
2018-05-15T06:20:44.068Z,15.69
2018-05-15T06:21:54.028Z,15.74
2018-05-15T06:23:02.892Z,15.8
2018-05-15T06:24:11.755Z,15.8
2018-05-15T06:25:20.947Z,15.87
2018-05-15T06:26:29.812Z,15.86
2018-05-15T06:27:38.676Z,15.87
2018-05-15T06:28:47.587Z,16
2018-05-15T06:29:56.447Z,15.93
2018-05-15T06:31:05.745Z,15.94
2018-05-15T06:32:14.608Z,15.97
2018-05-15T06:33:23.803Z,16.08
2018-05-15T06:34:32.666Z,16.09
2018-05-15T06:35:41.530Z,16.23
2018-05-15T06:36:50.390Z,16.24
2018-05-15T06:37:59.253Z,16.25
2018-05-15T06:39:08.116Z,16.31
2018-05-15T06:40:16.979Z,16.28
2018-05-15T06:41:25.840Z,16.27
2018-05-15T06:42:35.032Z,16.34
2018-05-15T06:43:43.895Z,16.34
2018-05-15T06:44:53.034Z,16.46
2018-05-15T06:46:01.910Z,16.53
2018-05-15T06:47:11.051Z,16.57
2018-05-15T06:48:20.260Z,16.58
2018-05-15T06:49:29.122Z,16.58
2018-05-15T06:50:38.258Z,16.56
2018-05-15T06:51:47.397Z,16.68
2018-05-15T06:52:56.259Z,16.68
2018-05-15T06:54:05.556Z,16.68
2018-05-15T06:55:14.419Z,16.78
2018-05-15T06:56:23.558Z,16.82
2018-05-15T06:57:32.421Z,16.89
2018-05-15T06:58:41.560Z,16.89
2018-05-15T06:59:50.471Z,16.86
2018-05-15T07:00:59.332Z,16.88
2018-05-15T07:02:08.194Z,16.97
2018-05-15T07:03:17.335Z,17
2018-05-15T07:04:26.201Z,17.11
2018-05-15T07:05:35.113Z,17.12
2018-05-15T07:06:43.974Z,17.04
2018-05-15T07:07:52.840Z,17
2018-05-15T07:09:01.700Z,17.08
2018-05-15T07:10:10.564Z,17.11
2018-05-15T07:11:19.577Z,17.19
2018-05-15T07:12:28.716Z,17.14
2018-05-15T07:13:37.856Z,17.21
2018-05-15T07:14:46.999Z,17.31
2018-05-15T07:15:55.861Z,17.37
2018-05-15T07:17:05.175Z,17.4
2018-05-15T07:18:14.041Z,17.48
2018-05-15T07:19:22.995Z,17.51
2018-05-15T07:20:32.139Z,17.48
2018-05-15T07:21:41.285Z,17.54
2018-05-15T07:22:50.482Z,17.49
2018-05-15T07:23:59.336Z,17.46
2018-05-15T07:25:08.203Z,17.49
2018-05-15T07:26:17.343Z,17.46
2018-05-15T07:27:26.311Z,17.59
2018-05-15T07:28:35.457Z,17.72
2018-05-15T07:29:44.320Z,17.81
2018-05-15T07:30:53.190Z,17.75
2018-05-15T07:32:02.054Z,17.78
2018-05-15T07:33:10.923Z,17.78
2018-05-15T07:34:20.130Z,17.74
2018-05-15T07:35:28.994Z,17.75
2018-05-15T07:36:37.859Z,17.75
2018-05-15T07:37:47.001Z,17.75
2018-05-15T07:38:55.861Z,17.75
2018-05-15T07:40:04.825Z,17.7
2018-05-15T07:41:13.687Z,17.75
2018-05-15T07:42:22.551Z,17.75
2018-05-15T07:43:31.697Z,17.75
2018-05-15T07:44:40.562Z,17.81
2018-05-15T07:45:49.482Z,17.77
2018-05-15T07:46:58.339Z,17.92
2018-05-15T07:48:07.273Z,17.9
2018-05-15T07:49:16.424Z,17.93
2018-05-15T07:50:25.564Z,18
2018-05-15T07:51:34.709Z,18
2018-05-15T07:52:43.573Z,18.02
2018-05-15T07:53:52.437Z,18.1
2018-05-15T07:55:01.299Z,18.1
2018-05-15T07:56:10.162Z,18.11
2018-05-15T07:57:19.354Z,18.17
2018-05-15T07:58:28.217Z,18.21
2018-05-15T07:59:37.083Z,18.15
2018-05-15T08:00:46.227Z,18.17
2018-05-15T08:01:55.365Z,18.21
2018-05-15T08:03:05.251Z,18.12
2018-05-15T08:04:14.120Z,18.21
2018-05-15T08:05:23.331Z,18.41
2018-05-15T08:06:32.470Z,18.5
2018-05-15T08:07:41.333Z,18.52
2018-05-15T08:08:50.351Z,18.51
2018-05-15T08:09:59.208Z,18.58
2018-05-15T08:11:08.079Z,18.58
2018-05-15T08:12:17.227Z,18.57
2018-05-15T08:13:26.655Z,18.6
2018-05-15T08:14:35.523Z,18.73
2018-05-15T08:15:44.388Z,18.7
2018-05-15T08:16:53.257Z,18.73
2018-05-15T08:18:02.121Z,18.8
2018-05-15T08:19:10.988Z,18.78
2018-05-15T08:20:19.900Z,18.81
2018-05-15T08:21:28.763Z,18.85
2018-05-15T08:22:38.045Z,18.85
2018-05-15T08:23:47.425Z,19.04
2018-05-15T08:24:56.570Z,18.94
2018-05-15T08:26:05.690Z,18.91
2018-05-15T08:27:15.108Z,19.04
2018-05-15T08:28:24.253Z,19.1
2018-05-15T08:29:33.120Z,19.29
2018-05-15T08:30:41.978Z,19.26
2018-05-15T08:31:51.636Z,19.29
2018-05-15T08:33:00.500Z,19.25
2018-05-15T08:34:09.648Z,19.37
2018-05-15T08:35:18.513Z,19.4
2018-05-15T08:36:27.375Z,19.41
2018-05-15T08:37:36.693Z,19.43
2018-05-15T08:38:45.993Z,19.63
2018-05-15T08:39:55.132Z,19.65
2018-05-15T08:41:04.273Z,19.55
2018-05-15T08:42:13.138Z,19.63
2018-05-15T08:43:22.256Z,19.76
2018-05-15T08:44:31.121Z,19.74
2018-05-15T08:45:40.264Z,19.71
2018-05-15T08:46:49.133Z,19.61
2018-05-15T08:47:57.990Z,19.69
2018-05-15T08:49:06.954Z,19.81
2018-05-15T08:50:15.826Z,19.83
2018-05-15T08:51:24.712Z,19.92
2018-05-15T08:52:33.548Z,19.95
2018-05-15T08:53:42.409Z,19.96
2018-05-15T08:54:51.609Z,19.92
2018-05-15T08:56:00.751Z,19.94
2018-05-15T08:57:09.617Z,20.03
2018-05-15T08:58:18.479Z,20.18
2018-05-15T08:59:27.341Z,20.23
2018-05-15T09:00:36.254Z,20.32
2018-05-15T09:01:45.121Z,20.26
2018-05-15T09:02:53.985Z,20.35
2018-05-15T09:04:02.848Z,20.36
2018-05-15T09:05:11.991Z,20.17
2018-05-15T09:06:21.582Z,20.29
2018-05-15T09:07:30.451Z,20.33
2018-05-15T09:08:39.591Z,20.38
2018-05-15T09:09:48.456Z,20.55
2018-05-15T09:10:57.370Z,20.48
2018-05-15T09:12:06.584Z,20.57
2018-05-15T09:13:15.448Z,20.61
2018-05-15T09:14:24.315Z,20.67
2018-05-15T09:15:33.455Z,20.84
2018-05-15T09:16:42.606Z,20.84
2018-05-15T09:17:51.848Z,20.99
2018-05-15T09:19:00.712Z,20.99
2018-05-15T09:20:09.577Z,21.03
2018-05-15T09:21:18.482Z,20.94
2018-05-15T09:22:27.634Z,20.85
2018-05-15T09:23:36.829Z,20.76
2018-05-15T09:24:45.977Z,20.77
2018-05-15T09:25:54.835Z,20.79
2018-05-15T09:27:04.077Z,20.91
2018-05-15T09:28:12.941Z,21.04
2018-05-15T09:29:21.986Z,21.17
2018-05-15T09:30:30.770Z,21.13
2018-05-15T09:31:39.922Z,21.19
2018-05-15T09:32:48.782Z,21.28
2018-05-15T09:33:57.644Z,21.37
2018-05-15T09:35:07.245Z,21.38
2018-05-15T09:36:16.946Z,21.52
2018-05-15T09:37:26.108Z,21.69
2018-05-15T09:38:34.973Z,21.83
2018-05-15T09:39:43.836Z,21.79
2018-05-15T09:40:52.751Z,21.82
2018-05-15T09:42:01.629Z,21.8
2018-05-15T09:43:10.775Z,21.72
2018-05-15T09:44:20.190Z,21.8
2018-05-15T09:45:29.057Z,21.86
2018-05-15T09:46:38.124Z,21.98
2018-05-15T09:47:46.994Z,22.03
2018-05-15T09:48:55.868Z,22.03
2018-05-15T09:50:05.010Z,22.1
2018-05-15T09:51:13.874Z,22.14
2018-05-15T09:52:22.938Z,22.1
2018-05-15T09:53:31.761Z,22.28
2018-05-15T09:54:40.905Z,22.35
2018-05-15T09:55:50.051Z,22.37
2018-05-15T09:56:58.919Z,22.45
2018-05-15T09:58:07.930Z,22.51
2018-05-15T09:59:16.799Z,22.46
2018-05-15T10:00:25.937Z,22.18
2018-05-15T10:01:35.079Z,22.21
2018-05-15T10:02:44.244Z,22.21
2018-05-15T10:03:53.768Z,22.22
2018-05-15T10:05:02.635Z,22.51
2018-05-15T10:06:11.501Z,22.55
2018-05-15T10:07:20.366Z,22.57
2018-05-15T10:08:29.231Z,22.8
2018-05-15T10:09:38.147Z,22.62
2018-05-15T10:10:47.013Z,22.6
2018-05-15T10:11:55.880Z,22.65
2018-05-15T10:13:04.747Z,22.77
2018-05-15T10:14:14.044Z,22.75
2018-05-15T10:15:23.797Z,22.75
2018-05-15T10:16:32.661Z,22.76
2018-05-15T10:17:41.527Z,22.88
2018-05-15T10:18:50.393Z,22.88
2018-05-15T10:19:59.630Z,22.97
2018-05-15T10:21:09.318Z,22.97
2018-05-15T10:22:18.184Z,22.94
2018-05-15T10:23:27.326Z,22.88
2018-05-15T10:24:36.192Z,22.88
2018-05-15T10:25:45.346Z,22.98
2018-05-15T10:26:54.210Z,23.02
2018-05-15T10:28:03.160Z,23.04
2018-05-15T10:29:11.945Z,23.19
2018-05-15T10:30:20.809Z,23.22
2018-05-15T10:31:29.675Z,23.17
2018-05-15T10:32:38.790Z,23.1
2018-05-15T10:33:47.655Z,23.15
2018-05-15T10:34:56.521Z,23.1
2018-05-15T10:36:05.667Z,23.09
2018-05-15T10:37:14.817Z,23.13
2018-05-15T10:38:24.002Z,23.2
2018-05-15T10:39:32.867Z,23.35
2018-05-15T10:40:41.736Z,23.33
2018-05-15T10:41:50.883Z,23.51
2018-05-15T10:42:59.749Z,23.66
2018-05-15T10:44:08.617Z,23.6
2018-05-15T10:45:17.482Z,23.55
2018-05-15T10:46:26.631Z,23.57
2018-05-15T10:47:35.499Z,23.61
2018-05-15T10:48:44.640Z,23.51
2018-05-15T10:49:53.847Z,23.65
2018-05-15T10:51:02.715Z,23.58
2018-05-15T10:52:11.581Z,23.61
2018-05-15T10:53:20.447Z,23.61
2018-05-15T10:54:29.313Z,23.65
2018-05-15T10:55:38.334Z,23.75
2018-05-15T10:56:47.203Z,23.61
2018-05-15T10:57:56.068Z,23.78
2018-05-15T10:59:04.937Z,23.85
2018-05-15T11:00:13.804Z,23.95
2018-05-15T11:01:22.724Z,23.98
2018-05-15T11:02:31.592Z,23.93
2018-05-15T11:03:40.458Z,23.95
2018-05-15T11:04:49.908Z,23.95
2018-05-15T11:05:58.771Z,23.97
2018-05-15T11:07:07.638Z,23.91
2018-05-15T11:08:16.507Z,23.94
2018-05-15T11:09:25.742Z,24.02
2018-05-15T11:10:34.807Z,24.12
2018-05-15T11:11:43.672Z,24.22
2018-05-15T11:12:53.040Z,24.25
2018-05-15T11:14:02.196Z,24.18
2018-05-15T11:15:11.654Z,24.18
2018-05-15T11:16:20.522Z,24.18
2018-05-15T11:17:29.389Z,24.1
2018-05-15T11:18:38.792Z,24.05
2018-05-15T11:19:47.944Z,24.12
2018-05-15T11:20:57.087Z,23.94
2018-05-15T11:22:05.957Z,24.08
2018-05-15T11:23:14.827Z,24.06
2018-05-15T11:24:23.847Z,23.94
2018-05-15T11:25:32.716Z,24.03
2018-05-15T11:26:41.586Z,24.22
2018-05-15T11:27:50.450Z,24.2
2018-05-15T11:28:59.320Z,24.32
2018-05-15T11:30:08.287Z,24.46
2018-05-15T11:31:17.220Z,24.55
2018-05-15T11:32:26.025Z,24.57
2018-05-15T11:33:35.171Z,24.49
2018-05-15T11:34:44.043Z,24.45
2018-05-15T11:35:53.395Z,24.55
2018-05-15T11:37:02.668Z,24.57
2018-05-15T11:38:11.536Z,24.65
2018-05-15T11:39:20.399Z,24.77
2018-05-15T11:40:29.270Z,24.76
2018-05-15T11:41:39.000Z,24.85
2018-05-15T11:42:48.171Z,24.99
2018-05-15T11:43:57.041Z,25.24
2018-05-15T11:45:05.910Z,25.2
2018-05-15T11:46:14.778Z,25.21
2018-05-15T11:47:23.814Z,25.03
2018-05-15T11:48:33.942Z,25.02
2018-05-15T11:49:44.553Z,25.06
2018-05-15T11:50:55.051Z,25.13
2018-05-15T11:52:06.756Z,25.15
2018-05-15T11:53:17.068Z,25.3
2018-05-15T11:54:25.164Z,25.39
2018-05-15T11:55:35.296Z,25.43
2018-05-15T11:56:49.936Z,25.57
2018-05-15T11:57:58.817Z,25.67
2018-05-15T11:59:07.829Z,25.83
2018-05-15T12:00:16.697Z,25.85
2018-05-15T12:01:25.568Z,25.94
2018-05-15T12:02:34.505Z,25.79
2018-05-15T12:03:43.683Z,26.06
2018-05-15T12:04:52.978Z,26.12
2018-05-15T12:06:01.845Z,26.26
2018-05-15T12:07:10.994Z,26.35
2018-05-15T12:08:20.463Z,26.5
2018-05-15T12:09:29.714Z,26.67
2018-05-15T12:10:38.742Z,26.73
2018-05-15T12:11:48.141Z,26.82
2018-05-15T12:12:57.088Z,26.76
2018-05-15T12:14:05.934Z,26.76
2018-05-15T12:15:15.176Z,26.84
2018-05-15T12:16:24.165Z,26.75
2018-05-15T12:17:33.043Z,26.77
2018-05-15T12:18:41.933Z,26.81
2018-05-15T12:19:50.810Z,27
2018-05-15T12:21:00.327Z,27.04
2018-05-15T12:22:09.900Z,27.13
2018-05-15T12:23:19.052Z,27.25
2018-05-15T12:24:27.950Z,27.29
2018-05-15T12:25:36.801Z,27.39
2018-05-15T12:26:45.675Z,27.5
2018-05-15T12:27:54.985Z,27.43
2018-05-15T12:29:03.861Z,27.55
2018-05-15T12:30:12.745Z,27.6
2018-05-15T12:31:21.622Z,27.47
2018-05-15T12:32:30.494Z,27.14
2018-05-15T12:33:39.421Z,26.95
2018-05-15T12:34:48.578Z,26.75
2018-05-15T12:35:57.851Z,26.65
2018-05-15T12:37:06.723Z,26.6
2018-05-15T12:38:15.599Z,26.62
2018-05-15T12:39:24.522Z,26.54
2018-05-15T12:40:33.673Z,26.5
2018-05-15T12:41:43.196Z,26.45
2018-05-15T12:42:52.661Z,26.33
2018-05-15T12:44:01.809Z,26.39
2018-05-15T12:45:10.738Z,26.36
2018-05-15T12:46:19.648Z,26.3
2018-05-15T12:47:28.495Z,26.23
2018-05-15T12:48:37.455Z,26.15
2018-05-15T12:49:46.237Z,25.98
2018-05-15T12:50:55.265Z,25.82
2018-05-15T12:52:04.134Z,25.8
2018-05-15T12:53:13.281Z,25.9
2018-05-15T12:54:22.150Z,25.94
2018-05-15T12:55:31.020Z,26.05
2018-05-15T12:56:40.434Z,26.2
2018-05-15T12:57:49.291Z,26.33
2018-05-15T12:58:58.160Z,26.5
2018-05-15T13:00:07.031Z,26.66
2018-05-15T13:01:15.902Z,26.82
2018-05-15T13:02:24.877Z,26.81
2018-05-15T13:03:33.750Z,26.91
2018-05-15T13:04:42.624Z,27.12
2018-05-15T13:05:51.495Z,27.13
2018-05-15T13:07:00.369Z,27.19
2018-05-15T13:08:09.492Z,27.25
2018-05-15T13:09:18.395Z,27.27
2018-05-15T13:10:27.544Z,27.25
2018-05-15T13:11:36.838Z,27.17
2018-05-15T13:12:45.709Z,26.97
2018-05-15T13:13:54.682Z,26.76
2018-05-15T13:15:03.843Z,26.84
2018-05-15T13:16:13.001Z,26.76
2018-05-15T13:17:21.872Z,26.72
2018-05-15T13:18:30.859Z,26.81
2018-05-15T13:19:40.466Z,26.5
2018-05-15T13:20:49.339Z,26.65
2018-05-15T13:21:58.213Z,26.8
2018-05-15T13:23:07.365Z,26.77
2018-05-15T13:24:16.281Z,26.82
2018-05-15T13:25:25.512Z,26.91
2018-05-15T13:26:34.384Z,27.06
2018-05-15T13:27:43.535Z,27.22
2018-05-15T13:28:52.689Z,27.46
2018-05-15T13:30:01.847Z,27.74
2018-05-15T13:31:10.771Z,27.7
2018-05-15T13:32:19.647Z,27.78
2018-05-15T13:33:28.522Z,27.51
2018-05-15T13:34:37.674Z,27.44
2018-05-15T13:35:46.867Z,27.51
2018-05-15T13:36:56.023Z,27.74
2018-05-15T13:38:04.902Z,27.87
2018-05-15T13:39:13.776Z,28.04
2018-05-15T13:40:22.652Z,28.18
2018-05-15T13:41:31.806Z,28.33
2018-05-15T13:42:40.881Z,28.56
2018-05-15T13:43:49.757Z,28.76
2018-05-15T13:44:58.915Z,28.9
2018-05-15T13:46:08.072Z,29.12
2018-05-15T13:47:16.955Z,29.04
2018-05-15T13:48:25.832Z,29.09
2018-05-15T13:49:35.002Z,29.02
2018-05-15T13:50:43.884Z,28.96
2018-05-15T13:51:52.756Z,28.85
2018-05-15T13:53:01.633Z,28.66
2018-05-15T13:54:10.520Z,28.48
2018-05-15T13:55:19.675Z,28.3
2018-05-15T13:56:28.831Z,28.12
2018-05-15T13:57:37.706Z,27.81
2018-05-15T13:58:46.860Z,27.77
2018-05-15T13:59:55.746Z,27.54
2018-05-15T14:01:04.901Z,27.5
2018-05-15T14:02:13.776Z,27.39
2018-05-15T14:03:22.655Z,27.18
2018-05-15T14:04:31.528Z,27.24
2018-05-15T14:05:40.501Z,27.06
2018-05-15T14:06:49.375Z,27.1
2018-05-15T14:07:58.245Z,27.04
2018-05-15T14:09:07.118Z,26.87
2018-05-15T14:10:15.988Z,26.77
2018-05-15T14:11:24.967Z,26.76
2018-05-15T14:12:34.572Z,26.6
2018-05-15T14:13:43.813Z,26.57
2018-05-15T14:14:52.689Z,26.5
2018-05-15T14:16:01.563Z,26.51
2018-05-15T14:17:10.425Z,26.52
2018-05-15T14:18:19.295Z,26.29
2018-05-15T14:19:28.163Z,26.35
2018-05-15T14:20:37.034Z,26.35
2018-05-15T14:21:46.192Z,26.36
2018-05-15T14:22:55.513Z,26.3
2018-05-15T14:24:04.437Z,26.37
2018-05-15T14:25:13.311Z,26.29
2018-05-15T14:26:22.374Z,26.39
2018-05-15T14:27:31.454Z,26.35
2018-05-15T14:28:41.289Z,26.33
2018-05-15T14:29:50.159Z,26.33
2018-05-15T14:30:59.182Z,26.44
2018-05-15T14:32:08.255Z,26.43
2018-05-15T14:33:17.302Z,26.45
2018-05-15T14:34:26.781Z,26.72
2018-05-15T14:35:36.027Z,26.92
2018-05-15T14:36:45.126Z,27.18
2018-05-15T14:37:54.708Z,27.27
2018-05-15T14:39:03.805Z,27.18
2018-05-15T14:40:13.592Z,27.18
2018-05-15T14:41:22.743Z,27.13
2018-05-15T14:42:32.261Z,27.27
2018-05-15T14:43:41.268Z,27.24
2018-05-15T14:44:50.332Z,27.21
2018-05-15T14:46:00.055Z,27.09
2018-05-15T14:47:09.176Z,26.99
2018-05-15T14:48:18.186Z,26.91
2018-05-15T14:49:27.236Z,26.81
2018-05-15T14:50:36.456Z,26.76
2018-05-15T14:51:45.911Z,26.69
2018-05-15T14:52:55.804Z,26.66